Latest Weather Observations for Bulman

IDD60801

Issued at 2:31 pm CST Sunday 26 March 2017 (issued every 30 minutes, with the page automatically refreshed every 10 minutes)

About weather observations | Map of weather stations | Latest weather observations for NT | Other Formats
Station Details ID: 014627 Name: BULMAN Lat: -13.67 Lon: 134.34 Height: 103.4 m
Data from the previous 72 hours. | See also: Recent months at Bulman
Date/Time
CST
Temp
°C
App
Temp
°C
Dew
Point
°C
Rel
Hum
%
Delta-T
°C
Wind Press
QNH
hPa
Press
MSL
hPa
Rain since
9am
mm
Dir  Spd
km/h
Gust
km/h
Spd
kts
Gust
kts
26/02:30pm 34.6 38.9 23.3 52 7.9 NNW 6 11 3 6 1007.1 1006.3 0.0
26/02:00pm 34.3 39.0 24.3 56 7.1 NNE 7 13 4 7 1007.4 1006.6 0.0
26/01:30pm 33.8 37.6 23.5 55 7.2 N 9 17 5 9 1007.8 1007.0 0.0
26/01:00pm 34.5 38.0 23.5 52 7.7 NW 11 15 6 8 1008.2 1007.4 0.0
26/12:30pm 33.3 36.8 23.6 56 6.8 NNW 11 17 6 9 1009.0 1008.2 0.0
26/12:00pm 32.7 36.2 23.6 58 6.3 NNW 11 20 6 11 1009.6 1008.8 0.0
26/11:30am 32.8 36.7 24.3 61 6.0 NNW 11 17 6 9 1010.0 1009.3 0.0
26/11:00am 32.0 34.9 23.8 62 5.7 NNW 15 22 8 12 1010.5 1009.8 0.0
26/10:30am 31.9 35.6 24.5 65 5.2 NNW 13 20 7 11 1010.7 1010.0 0.0
26/10:00am 31.0 34.8 24.1 66 4.8 NW 11 15 6 8 1010.8 1010.1 0.0
26/09:30am 29.6 32.9 24.5 74 3.6 NNW 15 22 8 12 1011.0 1010.3 0.0
26/09:00am 28.7 32.5 24.7 79 2.8 NNW 13 20 7 11 1010.9 1010.2 0.0
26/08:30am 27.6 32.2 24.8 85 2.0 NW 9 15 5 8 1010.6 1009.9 0.0
26/08:00am 25.9 30.8 24.7 93 0.8 NNW 7 9 4 5 1010.3 1009.6 0.0
26/07:30am 24.6 29.2 24.1 97 0.3 NNW 7 9 4 5 1009.9 1009.2 0.0
26/07:00am 24.2 28.5 23.7 97 0.3 NNW 7 9 4 5 1009.7 1008.9 0.0
26/06:30am 24.2 29.8 23.5 96 0.5 CALM 0 0 0 0 1009.5 1008.7 0.0
26/06:00am 24.3 29.9 23.6 96 0.5 CALM 0 0 0 0 1009.1 1008.3 0.0
26/05:30am 24.3 29.8 23.4 95 0.6 CALM 0 0 0 0 1009.1 1008.3 0.0
26/05:00am 24.4 30.0 23.5 95 0.6 CALM 0 0 0 0 1008.9 1008.1 0.0
26/04:30am 24.6 30.3 23.7 95 0.6 CALM 0 0 0 0 1008.9 1008.1 0.0
26/04:00am 24.6 30.2 23.6 94 0.7 CALM 0 0 0 0 1008.8 1008.0 0.0
26/03:30am 24.7 29.2 23.7 94 0.7 NNW 6 7 3 4 1008.9 1008.1 0.0
26/03:00am 24.8 29.8 23.8 94 0.7 NNW 4 7 2 4 1008.8 1008.0 0.0
26/02:30am 25.0 30.5 24.0 94 0.7 NNE 2 7 1 4 1008.8 1008.0 0.0
26/02:00am 25.3 31.2 24.1 93 0.8 CALM 0 0 0 0 1009.2 1008.4 0.0
26/01:30am 25.4 31.1 23.8 91 1.1 CALM 0 0 0 0 1009.6 1008.8 0.0
26/01:00am 25.5 30.2 23.9 91 1.1 NNW 6 9 3 5 1009.8 1009.0 0.0
26/12:30am 25.8 31.8 24.2 91 1.1 CALM 0 0 0 0 1010.2 1009.5 0.0
26/12:00am 25.9 31.9 24.3 91 1.1 CALM 0 0 0 0 1010.2 1009.5 0.0
 
Date/Time
CST
Temp
°C
App
Temp
°C
Dew
Point
°C
Rel
Hum
%
Delta-T
°C
Wind Press
QNH
hPa
Press
MSL
hPa
Rain since
9am
mm
Dir  Spd
km/h
Gust
km/h
Spd
kts
Gust
kts
25/11:30pm 26.2 32.2 24.2 89 1.4 CALM 0 0 0 0 1010.5 1009.8 0.0
25/11:00pm 26.3 31.8 24.0 87 1.6 NW 2 7 1 4 1010.6 1009.9 0.0
25/10:30pm 26.4 31.0 24.1 87 1.6 NNW 7 9 4 5 1010.4 1009.7 0.0
25/10:00pm 26.7 33.0 24.7 89 1.4 CALM 0 0 0 0 1010.3 1009.6 0.0
25/09:30pm 26.6 32.4 23.9 85 1.9 CALM 0 0 0 0 1009.9 1009.2 0.0
25/09:00pm 26.9 32.5 23.6 82 2.3 CALM 0 0 0 0 1009.3 1008.5 0.0
25/08:30pm 27.1 32.0 23.1 79 2.7 NNE 2 7 1 4 1008.9 1008.1 0.0
25/08:00pm 27.4 31.3 23.0 77 3.0 NNW 7 9 4 5 1008.2 1007.4 0.0
25/07:30pm 28.0 30.5 22.5 72 3.7 WNW 13 19 7 10 1008.0 1007.2 0.0
25/07:00pm 28.9 30.5 22.9 70 4.1 WNW 19 24 10 13 1008.2 1007.4 0.0
25/06:30pm 29.8 33.4 23.7 70 4.2 NNW 11 17 6 9 1007.6 1006.8 0.0
25/06:00pm 30.0 32.5 23.2 67 4.7 NNW 15 20 8 11 1007.1 1006.3 0.0
25/05:30pm 31.8 33.5 21.6 54 6.9 NNW 15 32 8 17 1006.4 1005.6 0.0
25/05:00pm 34.7 37.8 22.1 48 8.7 N 9 15 5 8 1005.5 1004.8 0.0
25/04:30pm 35.1 38.7 23.1 49 8.4 N 9 15 5 8 1005.2 1004.5 0.0
25/04:00pm 33.7 37.5 22.8 53 7.5 N 7 13 4 7 1005.6 1004.9 0.0
25/03:30pm 35.1 37.8 22.1 47 9.0 NNW 11 17 6 9 1005.8 1005.1 0.0
25/03:00pm 35.5 39.3 22.8 47 8.8 NNW 7 15 4 8 1006.1 1005.4 0.0
25/02:30pm 34.7 38.8 24.0 53 7.5 NNE 9 17 5 9 1006.7 1005.9 0.0
25/02:00pm 34.0 38.0 23.7 55 7.2 NNE 9 17 5 9 1007.0 1006.2 0.0
25/01:30pm 34.6 37.6 22.0 48 8.7 NNW 9 15 5 8 1007.2 1006.4 0.0
25/01:00pm 34.4 38.1 24.6 56 6.9 NNW 13 22 7 12 1007.8 1007.0 0.0
25/12:30pm 34.0 38.1 24.0 56 7.0 NNW 9 17 5 9 1008.3 1007.5 0.0
25/12:00pm 33.6 38.0 24.5 59 6.4 N 9 17 5 9 1008.5 1007.7 0.0
25/11:30am 33.6 38.5 25.3 62 5.9 NNE 9 13 5 7 1009.0 1008.2 0.0
25/11:00am 32.4 37.0 24.7 64 5.4 NNW 9 15 5 8 1009.3 1008.5 0.0
25/10:30am 32.1 37.0 24.7 65 5.2 NNE 7 11 4 6 1009.6 1008.8 0.0
25/10:00am 31.0 35.8 24.1 66 4.8 NNE 6 15 3 8 1009.8 1009.0 0.0
25/09:30am 30.1 34.9 24.5 72 3.9 N 7 17 4 9 1009.9 1009.2 0.0
25/09:00am 29.4 34.1 24.9 77 3.2 N 9 15 5 8 1009.7 1008.9 0.0
25/08:30am 28.0 32.6 24.8 83 2.2 NNW 9 15 5 8 1009.3 1008.5 0.0
25/08:00am 27.0 32.4 24.5 86 1.7 N 4 7 2 4 1008.9 1008.1 0.0
25/07:30am 25.3 30.0 24.3 94 0.7 N 7 13 4 7 1008.5 1007.7 0.0
25/07:00am 24.7 30.5 24.0 96 0.5 CALM 0 0 0 0 1008.5 1007.7 0.0
25/06:30am 24.6 29.1 23.7 95 0.6 NNW 6 7 3 4 1008.5 1007.7 0.0
25/06:00am 24.6 29.1 23.7 95 0.6 NNW 6 7 3 4 1008.0 1007.2 0.0
25/05:30am 24.7 29.3 23.8 95 0.6 N 6 7 3 4 1007.9 1007.1 0.0
25/05:00am 24.9 29.9 23.9 94 0.7 N 4 6 2 3 1007.7 1006.9 0.0
25/04:30am 25.1 29.8 23.9 93 0.8 NNW 6 9 3 5 1007.6 1006.8 0.0
25/04:00am 25.3 29.9 24.1 93 0.8 NNW 7 9 4 5 1008.2 1007.4 0.0
25/03:30am 25.4 30.3 24.4 94 0.7 NNW 6 9 3 5 1007.9 1007.1 0.0
25/03:00am 25.6 31.8 24.6 94 0.7 CALM 0 0 0 0 1007.8 1007.0 0.0
25/02:30am 25.8 32.0 24.6 93 0.8 CALM 0 0 0 0 1008.1 1007.3 0.0
25/02:00am 26.0 32.2 24.6 92 1.0 CALM 0 0 0 0 1008.4 1007.6 0.0
25/01:30am 26.0 32.1 24.4 91 1.1 CALM 0 0 0 0 1008.7 1007.9 0.0
25/01:00am 26.1 32.4 24.7 92 1.0 CALM 0 0 0 0 1009.2 1008.4 0.0
25/12:30am 26.4 32.7 24.8 91 1.1 CALM 0 0 0 0 1009.7 1008.9 0.0
25/12:00am 26.5 32.6 24.5 89 1.4 CALM 0 0 0 0 1010.0 1009.3 0.0
 
Date/Time
CST
Temp
°C
App
Temp
°C
Dew
Point
°C
Rel
Hum
%
Delta-T
°C
Wind Press
QNH
hPa
Press
MSL
hPa
Rain since
9am
mm
Dir  Spd
km/h
Gust
km/h
Spd
kts
Gust
kts
24/11:30pm 26.6 32.6 24.3 87 1.6 CALM 0 0 0 0 1010.4 1009.7 0.0
24/11:00pm 26.8 31.3 23.7 83 2.1 NNW 6 9 3 5 1010.1 1009.4 0.0
24/10:30pm 27.0 31.5 23.7 82 2.3 NNW 6 7 3 4 1010.0 1009.3 0.0
24/10:00pm 27.4 31.7 23.6 80 2.6 NNW 7 9 4 5 1009.5 1008.7 0.0
24/09:30pm 27.7 32.4 23.3 77 3.0 NNW 4 9 2 5 1009.3 1008.5 0.0
24/09:00pm 27.6 33.2 24.2 82 2.4 N 2 6 1 3 1008.5 1007.7 0.0
24/08:30pm 28.0 33.8 24.6 82 2.4 N 2 7 1 4 1008.0 1007.2 0.0
24/08:00pm 28.4 33.0 23.8 76 3.2 N 6 7 3 4 1007.6 1006.8 0.0
24/07:30pm 28.7 34.5 25.1 81 2.5 N 4 6 2 3 1007.4 1006.6 0.0
24/07:00pm 29.6 33.9 23.3 69 4.3 NNW 6 7 3 4 1007.2 1006.4 0.0
24/06:30pm 30.9 36.7 25.7 74 3.7 ENE 6 9 3 5 1006.7 1005.9 0.0
24/06:00pm 32.0 36.9 24.6 65 5.2 SE 7 9 4 5 1006.2 1005.5 0.0
24/05:30pm 33.4 38.2 25.1 61 5.9 SE 9 11 5 6 1006.1 1005.4 0.0
24/05:00pm 33.3 38.0 25.0 61 5.9 SE 9 15 5 8 1006.1 1005.4 0.0
24/04:30pm 33.8 37.6 24.1 57 6.8 ESE 11 17 6 9 1005.9 1005.2 0.0
24/04:00pm 34.5 38.2 23.2 51 7.9 SSE 9 11 5 6 1006.0 1005.3 0.0
24/03:30pm 33.5 37.7 24.1 58 6.6 SE 9 13 5 7 1006.6 1005.8 0.0
24/03:00pm 33.4 36.7 22.5 52 7.5 E 9 13 5 7 1006.9 1006.1 0.0
24/02:30pm 33.9 38.0 23.3 54 7.4 NNE 7 13 4 7 1007.1 1006.3 0.0
24/02:00pm 33.8 37.6 23.5 55 7.2 NE 9 13 5 7 1007.4 1006.6 0.0
24/01:30pm 33.4 37.8 23.4 55 7.0 NW 6 9 3 5 1007.9 1007.1 0.0
24/01:00pm 33.1 37.6 24.0 59 6.4 NNE 7 9 4 5 1008.4 1007.6 0.0
24/12:30pm 32.2 37.1 24.3 63 5.6 NNE 6 9 3 5 1008.9 1008.1 0.0
24/12:00pm 31.8 35.6 22.8 59 6.2 NE 7 13 4 7 1009.2 1008.4 0.0
24/11:30am 31.9 35.9 23.7 62 5.7 NE 9 17 5 9 1009.7 1008.9 0.0
24/11:00am 30.8 35.3 24.0 67 4.7 N 7 11 4 6 1010.2 1009.5 0.0
24/10:30am 30.6 35.1 24.0 68 4.6 N 7 11 4 6 1010.5 1009.8 0.0
24/10:00am 30.0 35.1 24.9 74 3.6 NNW 7 13 4 7 1010.5 1009.8 0.0
24/09:30am 29.7 35.3 25.4 78 3.0 NNW 6 9 3 5 1010.5 1009.8 0.0
24/09:00am 28.1 33.9 25.7 87 1.7 N 6 9 3 5 1010.5 1009.8 1.0
24/08:30am 27.6 33.2 25.8 90 1.3 NNW 7 9 4 5 1010.2 1009.5 1.0
24/08:00am 26.6 32.7 25.7 95 0.6 NNW 4 7 2 4 1010.1 1009.4 1.0
24/07:30am 26.2 33.0 25.5 96 0.5 CALM 0 0 0 0 1009.9 1009.2 1.0
24/07:00am 25.9 32.5 25.2 96 0.5 CALM 0 0 0 0 1009.6 1008.8 1.0
24/06:30am 25.7 32.2 25.0 96 0.5 CALM 0 0 0 0 1009.3 1008.5 1.0
24/06:00am 25.7 31.7 24.8 95 0.6 NNW 2 6 1 3 1008.9 1008.1 1.0
24/05:30am 25.7 30.9 24.8 95 0.6 N 6 7 3 4 1008.7 1007.9 1.0
24/05:00am 25.9 32.4 25.0 95 0.6 CALM 0 0 0 0 1008.6 1007.8 0.8
24/04:30am 26.0 32.5 25.1 95 0.6 CALM 0 0 0 0 1008.5 1007.7 0.8
24/04:00am 26.2 32.8 25.2 94 0.7 CALM 0 0 0 0 1008.7 1007.9 0.6
24/03:30am 26.1 32.6 25.1 94 0.7 CALM 0 0 0 0 1009.1 1008.3 0.4
24/03:00am 26.2 32.5 24.8 92 1.0 CALM 0 6 0 3 1009.2 1008.4 0.2
24/02:30am 26.3 32.4 25.1 93 0.8 NNE 2 7 1 4 1009.2 1008.4 0.0
24/02:00am 26.5 33.0 25.1 92 1.0 CALM 0 0 0 0 1009.4 1008.6 0.0
24/01:30am 26.8 33.6 25.6 93 0.8 CALM 0 0 0 0 1009.9 1009.2 0.0
24/01:00am 26.8 33.6 25.6 93 0.8 CALM 0 0 0 0 1010.1 1009.4 0.0
24/12:30am 27.1 33.9 25.5 91 1.1 CALM 0 0 0 0 1010.4 1009.7 0.0
24/12:00am 27.1 33.7 25.3 90 1.3 CALM 0 0 0 0 1010.9 1010.2 0.0
 
Date/Time
CST
Temp
°C
App
Temp
°C
Dew
Point
°C
Rel
Hum
%
Delta-T
°C
Wind Press
QNH
hPa
Press
MSL
hPa
Rain since
9am
mm
Dir  Spd
km/h
Gust
km/h
Spd
kts
Gust
kts
23/11:30pm 27.2 33.8 25.2 89 1.4 CALM 0 0 0 0 1011.0 1010.3 0.0
23/11:00pm 27.5 34.1 25.3 88 1.5 CALM 0 0 0 0 1011.1 1010.4 0.0
23/10:30pm 27.9 32.9 24.5 82 2.4 NE 6 11 3 6 1010.9 1010.2 0.0
23/10:00pm 28.1 32.8 24.3 80 2.6 N 7 9 4 5 1010.5 1009.8 0.0
23/09:30pm 28.3 33.2 24.7 81 2.5 N 7 11 4 6 1010.1 1009.4 0.0
23/09:00pm 28.6 34.0 25.2 82 2.4 N 6 11 3 6 1009.8 1009.0 0.0
23/08:30pm 29.0 34.0 24.8 78 3.0 N 7 11 4 6 1009.3 1008.5 0.0
23/08:00pm 28.7 35.1 25.5 83 2.3 SSE 2 9 1 5 1008.4 1007.6 0.0
23/07:30pm 28.8 35.5 25.4 82 2.4 CALM 0 0 0 0 1008.0 1007.2 0.0
23/07:00pm 29.4 35.7 24.7 76 3.3 CALM 0 0 0 0 1007.9 1007.1 0.0
23/06:30pm 31.2 37.8 25.3 71 4.2 CALM 0 0 0 0 1007.8 1007.0 0.0
23/06:00pm 32.8 37.9 23.4 57 6.5 ENE 2 7 1 4 1007.4 1006.6 0.0
23/05:30pm 33.2 37.3 23.2 55 7.0 NE 7 11 4 6 1007.2 1006.4 0.0
23/05:00pm 33.4 36.9 22.8 53 7.3 NE 9 11 5 6 1006.9 1006.1 0.0
23/04:30pm 33.9 37.6 23.3 54 7.4 NNE 9 15 5 8 1006.8 1006.0 0.0
23/04:00pm 34.4 38.6 23.4 52 7.7 ESE 7 13 4 7 1007.0 1006.2 0.0
23/03:30pm 33.8 38.2 23.8 56 7.0 NNE 7 15 4 8 1007.3 1006.5 0.0
23/03:00pm 33.8 38.8 23.8 56 7.0 NE 4 13 2 7 1007.7 1006.9 0.0

Other Formats:

Comma delimited format used in spreadsheet applications
http://www.bom.gov.au/fwo/IDD60801/IDD60801.94143.axf

JavaScript Object Notation format (JSON) in row-major order
http://www.bom.gov.au/fwo/IDD60801/IDD60801.94143.json